sensor_id;sensor_type;location;lat;lon;timestamp;P1;durP1;ratioP1;P2;durP2;ratioP2
579;SDS011;276;48.392;9.950;2023-11-21T00:02:21;4.87;;;2.20;;
579;SDS011;276;48.392;9.950;2023-11-21T00:04:59;6.50;;;2.40;;
579;SDS011;276;48.392;9.950;2023-11-21T00:07:25;6.63;;;2.93;;
579;SDS011;276;48.392;9.950;2023-11-21T00:09:51;4.63;;;2.17;;
579;SDS011;276;48.392;9.950;2023-11-21T00:12:20;5.87;;;1.90;;
579;SDS011;276;48.392;9.950;2023-11-21T00:14:46;5.43;;;2.13;;
579;SDS011;276;48.392;9.950;2023-11-21T00:17:14;7.87;;;2.17;;
579;SDS011;276;48.392;9.950;2023-11-21T00:19:42;6.53;;;1.93;;
579;SDS011;276;48.392;9.950;2023-11-21T00:22:08;4.97;;;1.97;;
579;SDS011;276;48.392;9.950;2023-11-21T00:24:34;7.63;;;1.73;;
579;SDS011;276;48.392;9.950;2023-11-21T00:27:02;5.50;;;2.43;;
579;SDS011;276;48.392;9.950;2023-11-21T00:29:28;6.63;;;2.03;;
579;SDS011;276;48.392;9.950;2023-11-21T00:31:55;5.30;;;1.50;;
579;SDS011;276;48.392;9.950;2023-11-21T00:34:21;6.53;;;2.10;;
579;SDS011;276;48.392;9.950;2023-11-21T00:36:49;3.70;;;2.00;;
579;SDS011;276;48.392;9.950;2023-11-21T00:39:17;4.40;;;2.40;;
579;SDS011;276;48.392;9.950;2023-11-21T00:41:43;5.50;;;2.53;;
579;SDS011;276;48.392;9.950;2023-11-21T00:44:10;4.07;;;1.87;;
579;SDS011;276;48.392;9.950;2023-11-21T00:46:35;3.10;;;2.43;;
579;SDS011;276;48.392;9.950;2023-11-21T00:49:02;8.40;;;3.07;;
579;SDS011;276;48.392;9.950;2023-11-21T00:51:30;5.00;;;2.03;;
579;SDS011;276;48.392;9.950;2023-11-21T00:53:55;7.00;;;2.90;;
579;SDS011;276;48.392;9.950;2023-11-21T00:56:24;3.20;;;2.17;;
579;SDS011;276;48.392;9.950;2023-11-21T00:58:52;5.70;;;1.73;;
579;SDS011;276;48.392;9.950;2023-11-21T01:01:18;3.97;;;2.00;;
579;SDS011;276;48.392;9.950;2023-11-21T01:03:47;4.27;;;2.27;;
579;SDS011;276;48.392;9.950;2023-11-21T01:06:15;5.90;;;2.40;;
579;SDS011;276;48.392;9.950;2023-11-21T01:08:41;6.13;;;2.40;;
579;SDS011;276;48.392;9.950;2023-11-21T01:11:11;4.17;;;1.67;;
579;SDS011;276;48.392;9.950;2023-11-21T01:13:40;3.33;;;3.03;;
579;SDS011;276;48.392;9.950;2023-11-21T01:16:06;3.30;;;2.00;;
579;SDS011;276;48.392;9.950;2023-11-21T01:18:34;5.20;;;2.20;;
579;SDS011;276;48.392;9.950;2023-11-21T01:21:00;4.60;;;1.53;;
579;SDS011;276;48.392;9.950;2023-11-21T01:23:26;4.93;;;2.27;;
579;SDS011;276;48.392;9.950;2023-11-21T01:25:52;3.93;;;2.00;;
579;SDS011;276;48.392;9.950;2023-11-21T01:28:20;2.73;;;1.93;;
579;SDS011;276;48.392;9.950;2023-11-21T01:30:46;5.40;;;2.00;;
579;SDS011;276;48.392;9.950;2023-11-21T01:33:14;5.80;;;1.90;;
579;SDS011;276;48.392;9.950;2023-11-21T01:35:40;7.53;;;2.73;;
579;SDS011;276;48.392;9.950;2023-11-21T01:38:07;5.70;;;1.93;;
579;SDS011;276;48.392;9.950;2023-11-21T01:40:33;3.60;;;1.97;;
579;SDS011;276;48.392;9.950;2023-11-21T01:42:59;3.87;;;1.70;;
579;SDS011;276;48.392;9.950;2023-11-21T01:45:28;3.77;;;2.67;;
579;SDS011;276;48.392;9.950;2023-11-21T01:47:56;2.13;;;1.93;;
579;SDS011;276;48.392;9.950;2023-11-21T01:50:23;7.30;;;2.40;;
579;SDS011;276;48.392;9.950;2023-11-21T01:52:51;4.03;;;2.03;;
579;SDS011;276;48.392;9.950;2023-11-21T01:55:20;3.60;;;2.23;;
579;SDS011;276;48.392;9.950;2023-11-21T01:57:48;4.63;;;2.20;;
579;SDS011;276;48.392;9.950;2023-11-21T02:00:18;6.33;;;2.17;;
579;SDS011;276;48.392;9.950;2023-11-21T02:05:16;4.20;;;2.67;;
579;SDS011;276;48.392;9.950;2023-11-21T02:07:48;5.70;;;2.67;;
579;SDS011;276;48.392;9.950;2023-11-21T02:10:14;4.83;;;1.90;;
579;SDS011;276;48.392;9.950;2023-11-21T02:12:41;3.83;;;1.77;;
579;SDS011;276;48.392;9.950;2023-11-21T02:15:08;3.80;;;1.73;;
579;SDS011;276;48.392;9.950;2023-11-21T02:17:42;2.00;;;1.67;;
579;SDS011;276;48.392;9.950;2023-11-21T02:20:09;5.80;;;2.33;;
579;SDS011;276;48.392;9.950;2023-11-21T02:22:40;3.63;;;1.80;;
579;SDS011;276;48.392;9.950;2023-11-21T02:25:09;5.10;;;2.07;;
579;SDS011;276;48.392;9.950;2023-11-21T02:27:35;5.90;;;2.20;;
579;SDS011;276;48.392;9.950;2023-11-21T02:30:01;3.10;;;1.43;;
579;SDS011;276;48.392;9.950;2023-11-21T02:32:32;4.53;;;2.20;;
579;SDS011;276;48.392;9.950;2023-11-21T02:35:00;3.00;;;1.80;;
579;SDS011;276;48.392;9.950;2023-11-21T02:37:26;5.77;;;2.43;;
579;SDS011;276;48.392;9.950;2023-11-21T02:39:52;6.37;;;2.40;;
579;SDS011;276;48.392;9.950;2023-11-21T02:42:17;4.90;;;1.63;;
579;SDS011;276;48.392;9.950;2023-11-21T02:44:43;3.13;;;1.80;;
579;SDS011;276;48.392;9.950;2023-11-21T02:47:09;8.00;;;2.00;;
579;SDS011;276;48.392;9.950;2023-11-21T02:49:35;5.10;;;1.90;;
579;SDS011;276;48.392;9.950;2023-11-21T02:52:03;4.43;;;2.40;;
579;SDS011;276;48.392;9.950;2023-11-21T02:54:29;5.70;;;2.20;;
579;SDS011;276;48.392;9.950;2023-11-21T02:56:54;7.40;;;2.50;;
579;SDS011;276;48.392;9.950;2023-11-21T02:59:20;11.37;;;2.60;;
579;SDS011;276;48.392;9.950;2023-11-21T03:01:45;2.60;;;1.83;;
579;SDS011;276;48.392;9.950;2023-11-21T03:04:16;5.60;;;2.40;;
579;SDS011;276;48.392;9.950;2023-11-21T03:06:43;3.77;;;1.93;;
579;SDS011;276;48.392;9.950;2023-11-21T03:09:10;3.80;;;2.40;;
579;SDS011;276;48.392;9.950;2023-11-21T03:11:38;2.97;;;2.30;;
579;SDS011;276;48.392;9.950;2023-11-21T03:14:06;3.57;;;1.80;;
579;SDS011;276;48.392;9.950;2023-11-21T03:16:32;3.07;;;1.77;;
579;SDS011;276;48.392;9.950;2023-11-21T03:19:00;5.20;;;1.77;;
579;SDS011;276;48.392;9.950;2023-11-21T03:21:28;5.17;;;2.47;;
579;SDS011;276;48.392;9.950;2023-11-21T03:23:54;5.20;;;2.37;;
579;SDS011;276;48.392;9.950;2023-11-21T03:26:20;5.00;;;2.43;;
579;SDS011;276;48.392;9.950;2023-11-21T03:28:47;2.53;;;1.60;;
579;SDS011;276;48.392;9.950;2023-11-21T03:31:13;3.80;;;2.10;;
579;SDS011;276;48.392;9.950;2023-11-21T03:33:39;7.47;;;1.87;;
579;SDS011;276;48.392;9.950;2023-11-21T03:36:04;3.80;;;1.77;;
579;SDS011;276;48.392;9.950;2023-11-21T03:38:32;11.03;;;2.63;;
579;SDS011;276;48.392;9.950;2023-11-21T03:40:58;3.97;;;1.70;;
579;SDS011;276;48.392;9.950;2023-11-21T03:43:26;8.67;;;2.47;;
579;SDS011;276;48.392;9.950;2023-11-21T03:45:51;3.33;;;1.87;;
579;SDS011;276;48.392;9.950;2023-11-21T03:48:17;4.63;;;1.73;;
579;SDS011;276;48.392;9.950;2023-11-21T03:50:45;4.23;;;1.80;;
579;SDS011;276;48.392;9.950;2023-11-21T03:53:12;2.57;;;1.63;;
579;SDS011;276;48.392;9.950;2023-11-21T03:55:37;4.03;;;1.80;;
579;SDS011;276;48.392;9.950;2023-11-21T03:58:03;5.70;;;1.50;;
579;SDS011;276;48.392;9.950;2023-11-21T04:00:29;7.60;;;2.33;;
579;SDS011;276;48.392;9.950;2023-11-21T04:02:54;4.53;;;1.67;;
579;SDS011;276;48.392;9.950;2023-11-21T04:05:22;4.90;;;1.90;;
579;SDS011;276;48.392;9.950;2023-11-21T04:07:51;9.30;;;1.90;;
579;SDS011;276;48.392;9.950;2023-11-21T04:10:19;5.27;;;1.53;;
579;SDS011;276;48.392;9.950;2023-11-21T04:12:45;3.80;;;1.80;;
579;SDS011;276;48.392;9.950;2023-11-21T04:15:11;5.50;;;1.70;;
579;SDS011;276;48.392;9.950;2023-11-21T04:17:42;2.20;;;1.30;;
579;SDS011;276;48.392;9.950;2023-11-21T04:20:10;3.90;;;1.73;;
579;SDS011;276;48.392;9.950;2023-11-21T04:22:39;3.27;;;1.20;;
579;SDS011;276;48.392;9.950;2023-11-21T04:25:07;2.87;;;1.53;;
579;SDS011;276;48.392;9.950;2023-11-21T04:27:41;3.43;;;1.70;;
579;SDS011;276;48.392;9.950;2023-11-21T04:30:13;4.50;;;1.43;;
579;SDS011;276;48.392;9.950;2023-11-21T04:32:39;1.73;;;1.57;;
579;SDS011;276;48.392;9.950;2023-11-21T04:35:07;7.67;;;2.30;;
579;SDS011;276;48.392;9.950;2023-11-21T04:37:33;3.47;;;1.50;;
579;SDS011;276;48.392;9.950;2023-11-21T04:39:59;3.40;;;1.30;;
579;SDS011;276;48.392;9.950;2023-11-21T04:42:25;3.73;;;1.70;;
579;SDS011;276;48.392;9.950;2023-11-21T04:44:50;3.70;;;1.90;;
579;SDS011;276;48.392;9.950;2023-11-21T04:47:17;4.40;;;1.83;;
579;SDS011;276;48.392;9.950;2023-11-21T04:49:45;2.17;;;1.60;;
579;SDS011;276;48.392;9.950;2023-11-21T04:52:17;5.00;;;1.70;;
579;SDS011;276;48.392;9.950;2023-11-21T04:54:42;4.87;;;1.77;;
579;SDS011;276;48.392;9.950;2023-11-21T04:57:10;3.60;;;2.10;;
579;SDS011;276;48.392;9.950;2023-11-21T04:59:36;2.40;;;1.67;;
579;SDS011;276;48.392;9.950;2023-11-21T05:02:01;7.03;;;1.87;;
579;SDS011;276;48.392;9.950;2023-11-21T05:04:30;4.90;;;2.20;;
579;SDS011;276;48.392;9.950;2023-11-21T05:06:57;3.90;;;2.23;;
579;SDS011;276;48.392;9.950;2023-11-21T05:09:26;5.20;;;2.53;;
579;SDS011;276;48.392;9.950;2023-11-21T05:11:53;1.97;;;1.70;;
579;SDS011;276;48.392;9.950;2023-11-21T05:14:21;6.57;;;2.70;;
579;SDS011;276;48.392;9.950;2023-11-21T05:16:47;3.10;;;1.80;;
579;SDS011;276;48.392;9.950;2023-11-21T05:19:15;4.13;;;1.93;;
579;SDS011;276;48.392;9.950;2023-11-21T05:21:41;4.47;;;2.27;;
579;SDS011;276;48.392;9.950;2023-11-21T05:24:07;4.43;;;1.60;;
579;SDS011;276;48.392;9.950;2023-11-21T05:26:32;3.70;;;2.33;;
579;SDS011;276;48.392;9.950;2023-11-21T05:28:58;2.70;;;2.07;;
579;SDS011;276;48.392;9.950;2023-11-21T05:31:24;5.23;;;2.00;;
579;SDS011;276;48.392;9.950;2023-11-21T05:33:52;2.43;;;1.70;;
579;SDS011;276;48.392;9.950;2023-11-21T05:36:18;3.00;;;1.90;;
579;SDS011;276;48.392;9.950;2023-11-21T05:38:46;4.07;;;2.00;;
579;SDS011;276;48.392;9.950;2023-11-21T05:41:11;2.20;;;2.00;;
579;SDS011;276;48.392;9.950;2023-11-21T05:43:40;5.47;;;2.13;;
579;SDS011;276;48.392;9.950;2023-11-21T05:46:06;3.80;;;2.00;;
579;SDS011;276;48.392;9.950;2023-11-21T05:48:32;2.50;;;1.80;;
579;SDS011;276;48.392;9.950;2023-11-21T05:51:00;2.70;;;1.83;;
579;SDS011;276;48.392;9.950;2023-11-21T05:53:26;5.73;;;1.60;;
579;SDS011;276;48.392;9.950;2023-11-21T05:55:52;2.90;;;2.43;;
579;SDS011;276;48.392;9.950;2023-11-21T05:58:17;3.33;;;1.90;;
579;SDS011;276;48.392;9.950;2023-11-21T06:00:43;4.63;;;2.00;;
579;SDS011;276;48.392;9.950;2023-11-21T06:03:11;3.63;;;1.80;;
579;SDS011;276;48.392;9.950;2023-11-21T06:05:39;3.47;;;1.60;;
579;SDS011;276;48.392;9.950;2023-11-21T06:08:04;6.23;;;1.77;;
579;SDS011;276;48.392;9.950;2023-11-21T06:10:31;1.60;;;1.33;;
579;SDS011;276;48.392;9.950;2023-11-21T06:12:57;1.97;;;1.67;;
579;SDS011;276;48.392;9.950;2023-11-21T06:15:25;4.37;;;1.40;;
579;SDS011;276;48.392;9.950;2023-11-21T06:17:51;5.60;;;3.73;;
579;SDS011;276;48.392;9.950;2023-11-21T06:20:20;2.27;;;1.60;;
579;SDS011;276;48.392;9.950;2023-11-21T06:22:48;4.87;;;1.37;;
579;SDS011;276;48.392;9.950;2023-11-21T06:25:16;2.73;;;1.83;;
579;SDS011;276;48.392;9.950;2023-11-21T06:27:47;2.83;;;2.10;;
579;SDS011;276;48.392;9.950;2023-11-21T06:30:13;3.67;;;2.30;;
579;SDS011;276;48.392;9.950;2023-11-21T06:32:40;3.57;;;1.97;;
579;SDS011;276;48.392;9.950;2023-11-21T06:35:06;6.03;;;1.83;;
579;SDS011;276;48.392;9.950;2023-11-21T06:37:35;3.77;;;2.30;;
579;SDS011;276;48.392;9.950;2023-11-21T06:40:01;6.80;;;3.13;;
579;SDS011;276;48.392;9.950;2023-11-21T06:42:29;3.37;;;2.00;;
579;SDS011;276;48.392;9.950;2023-11-21T06:44:54;1.77;;;1.67;;
579;SDS011;276;48.392;9.950;2023-11-21T06:47:24;2.00;;;1.80;;
579;SDS011;276;48.392;9.950;2023-11-21T06:49:50;2.23;;;2.03;;
579;SDS011;276;48.392;9.950;2023-11-21T06:52:21;5.37;;;2.67;;
579;SDS011;276;48.392;9.950;2023-11-21T06:54:49;2.87;;;2.20;;
579;SDS011;276;48.392;9.950;2023-11-21T06:57:15;3.07;;;2.10;;
579;SDS011;276;48.392;9.950;2023-11-21T06:59:43;4.67;;;2.37;;
579;SDS011;276;48.392;9.950;2023-11-21T07:02:11;3.40;;;2.50;;
579;SDS011;276;48.392;9.950;2023-11-21T07:04:36;4.10;;;2.77;;
579;SDS011;276;48.392;9.950;2023-11-21T07:07:05;3.03;;;1.97;;
579;SDS011;276;48.392;9.950;2023-11-21T07:09:34;2.03;;;1.83;;
579;SDS011;276;48.392;9.950;2023-11-21T07:12:02;3.63;;;1.53;;
579;SDS011;276;48.392;9.950;2023-11-21T07:14:28;4.40;;;1.70;;
579;SDS011;276;48.392;9.950;2023-11-21T07:16:54;1.93;;;1.67;;
579;SDS011;276;48.392;9.950;2023-11-21T07:19:20;2.60;;;2.37;;
579;SDS011;276;48.392;9.950;2023-11-21T07:21:49;2.80;;;2.50;;
579;SDS011;276;48.392;9.950;2023-11-21T07:24:16;2.40;;;1.73;;
579;SDS011;276;48.392;9.950;2023-11-21T07:26:41;2.73;;;2.00;;
579;SDS011;276;48.392;9.950;2023-11-21T07:29:08;1.50;;;1.40;;
579;SDS011;276;48.392;9.950;2023-11-21T07:31:33;3.40;;;2.40;;
579;SDS011;276;48.392;9.950;2023-11-21T07:33:59;3.83;;;2.10;;
579;SDS011;276;48.392;9.950;2023-11-21T07:36:28;3.73;;;1.90;;
579;SDS011;276;48.392;9.950;2023-11-21T07:38:58;3.10;;;2.43;;
579;SDS011;276;48.392;9.950;2023-11-21T07:41:23;3.03;;;2.43;;
579;SDS011;276;48.392;9.950;2023-11-21T07:43:49;3.63;;;1.60;;
579;SDS011;276;48.392;9.950;2023-11-21T07:46:17;1.53;;;1.43;;
579;SDS011;276;48.392;9.950;2023-11-21T07:48:43;1.93;;;1.70;;
579;SDS011;276;48.392;9.950;2023-11-21T07:51:09;3.30;;;2.40;;
579;SDS011;276;48.392;9.950;2023-11-21T07:53:35;2.90;;;1.93;;
579;SDS011;276;48.392;9.950;2023-11-21T07:56:07;2.67;;;1.90;;
579;SDS011;276;48.392;9.950;2023-11-21T07:58:35;4.00;;;2.17;;
579;SDS011;276;48.392;9.950;2023-11-21T08:01:01;6.93;;;2.40;;
579;SDS011;276;48.392;9.950;2023-11-21T08:03:28;3.37;;;2.30;;
579;SDS011;276;48.392;9.950;2023-11-21T08:05:57;2.13;;;1.80;;
579;SDS011;276;48.392;9.950;2023-11-21T08:08:25;2.17;;;2.00;;
579;SDS011;276;48.392;9.950;2023-11-21T08:10:52;5.63;;;2.30;;
579;SDS011;276;48.392;9.950;2023-11-21T08:13:24;2.20;;;2.00;;
579;SDS011;276;48.392;9.950;2023-11-21T08:15:53;2.80;;;2.60;;
579;SDS011;276;48.392;9.950;2023-11-21T08:18:26;3.90;;;1.67;;
579;SDS011;276;48.392;9.950;2023-11-21T08:20:52;2.70;;;2.40;;
579;SDS011;276;48.392;9.950;2023-11-21T08:23:20;2.57;;;2.33;;
579;SDS011;276;48.392;9.950;2023-11-21T08:25:50;4.10;;;2.43;;
579;SDS011;276;48.392;9.950;2023-11-21T08:28:19;2.30;;;2.10;;
579;SDS011;276;48.392;9.950;2023-11-21T08:30:47;2.17;;;1.97;;
579;SDS011;276;48.392;9.950;2023-11-21T08:33:15;4.50;;;2.33;;
579;SDS011;276;48.392;9.950;2023-11-21T08:35:40;2.77;;;2.10;;
579;SDS011;276;48.392;9.950;2023-11-21T08:38:06;3.03;;;1.70;;
579;SDS011;276;48.392;9.950;2023-11-21T08:40:32;1.80;;;1.60;;
579;SDS011;276;48.392;9.950;2023-11-21T08:43:00;2.53;;;1.90;;
579;SDS011;276;48.392;9.950;2023-11-21T08:45:25;2.50;;;2.30;;
579;SDS011;276;48.392;9.950;2023-11-21T08:47:51;3.87;;;1.63;;
579;SDS011;276;48.392;9.950;2023-11-21T08:50:17;1.90;;;1.60;;
579;SDS011;276;48.392;9.950;2023-11-21T08:52:43;9.30;;;2.70;;
579;SDS011;276;48.392;9.950;2023-11-21T08:55:11;4.37;;;1.63;;
579;SDS011;276;48.392;9.950;2023-11-21T08:57:37;2.03;;;1.10;;
579;SDS011;276;48.392;9.950;2023-11-21T09:00:04;2.93;;;2.23;;
579;SDS011;276;48.392;9.950;2023-11-21T09:02:35;7.50;;;1.90;;
579;SDS011;276;48.392;9.950;2023-11-21T09:05:04;2.10;;;1.70;;
579;SDS011;276;48.392;9.950;2023-11-21T09:07:30;4.30;;;1.43;;
579;SDS011;276;48.392;9.950;2023-11-21T09:09:56;4.57;;;1.57;;
579;SDS011;276;48.392;9.950;2023-11-21T09:12:22;4.30;;;1.67;;
579;SDS011;276;48.392;9.950;2023-11-21T09:14:52;2.43;;;2.23;;
579;SDS011;276;48.392;9.950;2023-11-21T09:17:17;2.70;;;1.87;;
579;SDS011;276;48.392;9.950;2023-11-21T09:19:43;2.50;;;1.63;;
579;SDS011;276;48.392;9.950;2023-11-21T09:22:18;1.53;;;1.43;;
579;SDS011;276;48.392;9.950;2023-11-21T09:24:44;2.27;;;2.10;;
579;SDS011;276;48.392;9.950;2023-11-21T09:27:10;3.60;;;2.30;;
579;SDS011;276;48.392;9.950;2023-11-21T09:29:37;1.67;;;1.50;;
579;SDS011;276;48.392;9.950;2023-11-21T09:32:06;2.90;;;2.00;;
579;SDS011;276;48.392;9.950;2023-11-21T09:34:35;3.90;;;2.33;;
579;SDS011;276;48.392;9.950;2023-11-21T09:37:06;2.17;;;1.83;;
579;SDS011;276;48.392;9.950;2023-11-21T09:39:33;2.47;;;2.27;;
579;SDS011;276;48.392;9.950;2023-11-21T09:42:04;2.03;;;1.60;;
579;SDS011;276;48.392;9.950;2023-11-21T09:44:53;3.17;;;2.27;;
579;SDS011;276;48.392;9.950;2023-11-21T09:47:38;4.13;;;2.80;;
579;SDS011;276;48.392;9.950;2023-11-21T09:50:04;3.00;;;2.70;;
579;SDS011;276;48.392;9.950;2023-11-21T09:52:38;3.37;;;2.20;;
579;SDS011;276;48.392;9.950;2023-11-21T09:55:22;2.33;;;2.07;;
579;SDS011;276;48.392;9.950;2023-11-21T09:57:57;1.93;;;1.83;;
579;SDS011;276;48.392;9.950;2023-11-21T10:00:23;3.23;;;1.87;;
579;SDS011;276;48.392;9.950;2023-11-21T10:02:49;3.10;;;2.50;;
579;SDS011;276;48.392;9.950;2023-11-21T10:05:18;4.10;;;2.50;;
579;SDS011;276;48.392;9.950;2023-11-21T10:07:47;3.33;;;2.40;;
579;SDS011;276;48.392;9.950;2023-11-21T10:10:19;3.67;;;2.43;;
579;SDS011;276;48.392;9.950;2023-11-21T10:12:48;2.60;;;1.80;;
579;SDS011;276;48.392;9.950;2023-11-21T10:15:18;4.03;;;2.27;;
579;SDS011;276;48.392;9.950;2023-11-21T10:17:52;3.10;;;1.60;;
579;SDS011;276;48.392;9.950;2023-11-21T10:20:25;2.77;;;1.93;;
579;SDS011;276;48.392;9.950;2023-11-21T10:22:51;2.67;;;1.70;;
579;SDS011;276;48.392;9.950;2023-11-21T10:25:17;1.47;;;1.37;;
579;SDS011;276;48.392;9.950;2023-11-21T10:27:48;1.70;;;1.30;;
579;SDS011;276;48.392;9.950;2023-11-21T10:30:17;1.83;;;1.67;;
579;SDS011;276;48.392;9.950;2023-11-21T10:32:43;1.20;;;1.10;;
579;SDS011;276;48.392;9.950;2023-11-21T10:35:09;3.17;;;1.67;;
579;SDS011;276;48.392;9.950;2023-11-21T10:37:36;1.10;;;0.97;;
579;SDS011;276;48.392;9.950;2023-11-21T10:40:11;1.67;;;1.03;;
579;SDS011;276;48.392;9.950;2023-11-21T10:42:37;1.20;;;1.10;;
579;SDS011;276;48.392;9.950;2023-11-21T10:45:04;2.13;;;0.90;;
579;SDS011;276;48.392;9.950;2023-11-21T10:47:39;0.97;;;0.80;;
579;SDS011;276;48.392;9.950;2023-11-21T10:50:11;0.93;;;0.73;;
579;SDS011;276;48.392;9.950;2023-11-21T10:52:40;1.00;;;0.60;;
579;SDS011;276;48.392;9.950;2023-11-21T10:55:20;1.47;;;0.83;;
579;SDS011;276;48.392;9.950;2023-11-21T10:57:51;0.50;;;0.50;;
579;SDS011;276;48.392;9.950;2023-11-21T11:00:19;0.90;;;0.70;;
579;SDS011;276;48.392;9.950;2023-11-21T11:02:48;1.17;;;0.60;;
579;SDS011;276;48.392;9.950;2023-11-21T11:05:17;1.00;;;0.90;;
579;SDS011;276;48.392;9.950;2023-11-21T11:07:51;1.33;;;0.70;;
579;SDS011;276;48.392;9.950;2023-11-21T11:10:24;0.77;;;0.70;;
579;SDS011;276;48.392;9.950;2023-11-21T11:12:52;0.83;;;0.60;;
579;SDS011;276;48.392;9.950;2023-11-21T11:15:25;1.47;;;1.00;;
579;SDS011;276;48.392;9.950;2023-11-21T11:17:53;0.80;;;0.70;;
579;SDS011;276;48.392;9.950;2023-11-21T11:20:22;0.70;;;0.50;;
579;SDS011;276;48.392;9.950;2023-11-21T11:28:31;1.10;;;0.70;;
579;SDS011;276;48.392;9.950;2023-11-21T11:31:23;0.80;;;0.60;;
579;SDS011;276;48.392;9.950;2023-11-21T11:33:59;1.07;;;0.50;;
579;SDS011;276;48.392;9.950;2023-11-21T11:36:47;2.60;;;1.40;;
579;SDS011;276;48.392;9.950;2023-11-21T11:39:29;0.67;;;0.40;;
579;SDS011;276;48.392;9.950;2023-11-21T11:42:07;0.83;;;0.67;;
579;SDS011;276;48.392;9.950;2023-11-21T11:52:31;0.50;;;0.40;;
579;SDS011;276;48.392;9.950;2023-11-21T11:55:05;1.07;;;0.70;;
579;SDS011;276;48.392;9.950;2023-11-21T11:57:37;0.60;;;0.47;;
579;SDS011;276;48.392;9.950;2023-11-21T12:02:41;1.27;;;0.47;;
579;SDS011;276;48.392;9.950;2023-11-21T12:05:26;0.83;;;0.80;;
579;SDS011;276;48.392;9.950;2023-11-21T12:07:58;1.10;;;0.80;;
579;SDS011;276;48.392;9.950;2023-11-21T12:10:26;0.63;;;0.40;;
579;SDS011;276;48.392;9.950;2023-11-21T12:12:54;0.50;;;0.47;;
579;SDS011;276;48.392;9.950;2023-11-21T12:15:22;0.70;;;0.60;;
579;SDS011;276;48.392;9.950;2023-11-21T12:17:49;0.50;;;0.40;;
579;SDS011;276;48.392;9.950;2023-11-21T12:20:23;0.80;;;0.40;;
579;SDS011;276;48.392;9.950;2023-11-21T12:22:50;0.73;;;0.40;;
579;SDS011;276;48.392;9.950;2023-11-21T12:25:18;0.63;;;0.50;;
579;SDS011;276;48.392;9.950;2023-11-21T12:27:46;0.70;;;0.60;;
579;SDS011;276;48.392;9.950;2023-11-21T12:30:19;0.70;;;0.60;;
579;SDS011;276;48.392;9.950;2023-11-21T12:32:51;0.60;;;0.30;;
579;SDS011;276;48.392;9.950;2023-11-21T12:35:19;0.70;;;0.50;;
579;SDS011;276;48.392;9.950;2023-11-21T12:37:46;1.67;;;1.27;;
579;SDS011;276;48.392;9.950;2023-11-21T12:40:13;0.77;;;0.70;;
579;SDS011;276;48.392;9.950;2023-11-21T12:42:43;1.07;;;0.70;;
579;SDS011;276;48.392;9.950;2023-11-21T12:47:48;1.10;;;0.63;;
579;SDS011;276;48.392;9.950;2023-11-21T12:50:21;0.63;;;0.63;;
579;SDS011;276;48.392;9.950;2023-11-21T12:52:54;1.20;;;0.70;;
579;SDS011;276;48.392;9.950;2023-11-21T12:55:23;1.10;;;0.60;;
579;SDS011;276;48.392;9.950;2023-11-21T12:57:51;0.60;;;0.40;;
579;SDS011;276;48.392;9.950;2023-11-21T13:00:31;0.73;;;0.70;;
579;SDS011;276;48.392;9.950;2023-11-21T13:03:01;0.90;;;0.70;;
579;SDS011;276;48.392;9.950;2023-11-21T13:05:38;0.90;;;0.70;;
579;SDS011;276;48.392;9.950;2023-11-21T13:08:07;0.80;;;0.60;;
579;SDS011;276;48.392;9.950;2023-11-21T13:10:41;1.00;;;0.60;;
579;SDS011;276;48.392;9.950;2023-11-21T13:13:13;1.90;;;0.60;;
579;SDS011;276;48.392;9.950;2023-11-21T13:15:50;0.50;;;0.50;;
579;SDS011;276;48.392;9.950;2023-11-21T13:18:21;0.40;;;0.30;;
579;SDS011;276;48.392;9.950;2023-11-21T13:20:52;1.77;;;0.80;;
579;SDS011;276;48.392;9.950;2023-11-21T13:23:19;0.77;;;0.70;;
579;SDS011;276;48.392;9.950;2023-11-21T13:25:45;1.70;;;0.90;;
579;SDS011;276;48.392;9.950;2023-11-21T13:28:12;0.90;;;0.80;;
579;SDS011;276;48.392;9.950;2023-11-21T13:30:40;0.97;;;0.97;;
579;SDS011;276;48.392;9.950;2023-11-21T13:33:09;1.03;;;0.50;;
579;SDS011;276;48.392;9.950;2023-11-21T13:35:44;0.70;;;0.53;;
579;SDS011;276;48.392;9.950;2023-11-21T13:38:16;0.53;;;0.50;;
579;SDS011;276;48.392;9.950;2023-11-21T13:40:49;0.90;;;0.60;;
579;SDS011;276;48.392;9.950;2023-11-21T13:43:18;0.87;;;0.80;;
579;SDS011;276;48.392;9.950;2023-11-21T13:45:50;0.60;;;0.47;;
579;SDS011;276;48.392;9.950;2023-11-21T13:48:23;0.70;;;0.63;;
579;SDS011;276;48.392;9.950;2023-11-21T13:51:07;4.10;;;0.80;;
579;SDS011;276;48.392;9.950;2023-11-21T13:53:41;0.83;;;0.80;;
579;SDS011;276;48.392;9.950;2023-11-21T13:56:10;1.37;;;0.80;;
579;SDS011;276;48.392;9.950;2023-11-21T13:58:43;0.70;;;0.70;;
579;SDS011;276;48.392;9.950;2023-11-21T14:01:16;1.37;;;0.90;;
579;SDS011;276;48.392;9.950;2023-11-21T14:04:12;1.97;;;0.70;;
579;SDS011;276;48.392;9.950;2023-11-21T14:06:38;0.73;;;0.60;;
579;SDS011;276;48.392;9.950;2023-11-21T14:09:13;1.00;;;0.80;;
579;SDS011;276;48.392;9.950;2023-11-21T14:14:22;1.20;;;1.20;;
579;SDS011;276;48.392;9.950;2023-11-21T14:16:54;1.30;;;1.20;;
579;SDS011;276;48.392;9.950;2023-11-21T14:19:31;1.60;;;1.50;;
579;SDS011;276;48.392;9.950;2023-11-21T14:22:03;1.03;;;1.00;;
579;SDS011;276;48.392;9.950;2023-11-21T14:24:29;1.13;;;0.90;;
579;SDS011;276;48.392;9.950;2023-11-21T14:26:55;1.30;;;1.10;;
579;SDS011;276;48.392;9.950;2023-11-21T14:29:26;1.10;;;1.10;;
579;SDS011;276;48.392;9.950;2023-11-21T14:31:52;1.57;;;1.23;;
579;SDS011;276;48.392;9.950;2023-11-21T14:34:21;1.33;;;0.93;;
579;SDS011;276;48.392;9.950;2023-11-21T14:36:51;1.40;;;1.27;;
579;SDS011;276;48.392;9.950;2023-11-21T14:39:19;1.20;;;1.10;;
579;SDS011;276;48.392;9.950;2023-11-21T14:41:51;1.30;;;1.00;;
579;SDS011;276;48.392;9.950;2023-11-21T14:44:21;0.97;;;0.90;;
579;SDS011;276;48.392;9.950;2023-11-21T14:46:53;1.33;;;1.10;;
579;SDS011;276;48.392;9.950;2023-11-21T14:49:23;1.40;;;1.17;;
579;SDS011;276;48.392;9.950;2023-11-21T14:51:53;1.10;;;1.00;;
579;SDS011;276;48.392;9.950;2023-11-21T14:54:26;1.13;;;1.07;;
579;SDS011;276;48.392;9.950;2023-11-21T14:57:04;1.07;;;0.93;;
579;SDS011;276;48.392;9.950;2023-11-21T14:59:34;1.30;;;1.20;;
579;SDS011;276;48.392;9.950;2023-11-21T15:02:00;1.00;;;0.80;;
579;SDS011;276;48.392;9.950;2023-11-21T15:04:39;1.30;;;1.20;;
579;SDS011;276;48.392;9.950;2023-11-21T15:07:08;1.23;;;1.13;;
579;SDS011;276;48.392;9.950;2023-11-21T15:09:36;1.53;;;1.10;;
579;SDS011;276;48.392;9.950;2023-11-21T15:12:10;1.90;;;1.23;;
579;SDS011;276;48.392;9.950;2023-11-21T15:14:40;1.10;;;1.00;;
579;SDS011;276;48.392;9.950;2023-11-21T15:17:26;1.27;;;1.10;;
579;SDS011;276;48.392;9.950;2023-11-21T15:19:58;2.03;;;1.40;;
579;SDS011;276;48.392;9.950;2023-11-21T15:22:25;1.57;;;1.20;;
579;SDS011;276;48.392;9.950;2023-11-21T15:24:52;1.33;;;1.23;;
579;SDS011;276;48.392;9.950;2023-11-21T15:27:18;3.07;;;1.30;;
579;SDS011;276;48.392;9.950;2023-11-21T15:29:47;1.37;;;1.27;;
579;SDS011;276;48.392;9.950;2023-11-21T15:32:15;1.30;;;1.20;;
579;SDS011;276;48.392;9.950;2023-11-21T15:34:41;1.17;;;1.10;;
579;SDS011;276;48.392;9.950;2023-11-21T15:37:08;1.37;;;1.27;;
579;SDS011;276;48.392;9.950;2023-11-21T15:39:36;1.50;;;1.30;;
579;SDS011;276;48.392;9.950;2023-11-21T15:42:03;1.30;;;1.20;;
579;SDS011;276;48.392;9.950;2023-11-21T15:44:32;1.70;;;1.60;;
579;SDS011;276;48.392;9.950;2023-11-21T15:46:58;1.67;;;1.57;;
579;SDS011;276;48.392;9.950;2023-11-21T15:49:25;2.33;;;1.70;;
579;SDS011;276;48.392;9.950;2023-11-21T15:51:57;2.87;;;2.17;;
579;SDS011;276;48.392;9.950;2023-11-21T15:54:24;2.17;;;2.00;;
579;SDS011;276;48.392;9.950;2023-11-21T15:56:51;3.97;;;2.67;;
579;SDS011;276;48.392;9.950;2023-11-21T15:59:17;2.63;;;2.30;;
579;SDS011;276;48.392;9.950;2023-11-21T16:01:49;6.13;;;3.30;;
579;SDS011;276;48.392;9.950;2023-11-21T16:04:17;3.60;;;2.80;;
579;SDS011;276;48.392;9.950;2023-11-21T16:06:47;3.90;;;2.17;;
579;SDS011;276;48.392;9.950;2023-11-21T16:09:17;1.60;;;1.50;;
579;SDS011;276;48.392;9.950;2023-11-21T16:11:55;1.93;;;1.83;;
579;SDS011;276;48.392;9.950;2023-11-21T16:14:27;1.87;;;1.77;;
579;SDS011;276;48.392;9.950;2023-11-21T16:17:02;2.03;;;1.73;;
579;SDS011;276;48.392;9.950;2023-11-21T16:19:32;1.90;;;1.80;;